createdAt,value
2024-05-09T00:00:36.342Z,72.58
2024-05-09T00:03:08.403Z,73.63
2024-05-09T00:05:36.825Z,73.69
2024-05-09T00:08:04.471Z,72.79
2024-05-09T00:10:36.389Z,73.41
2024-05-09T00:13:06.288Z,74.05
2024-05-09T00:15:33.977Z,74.00
2024-05-09T00:18:01.391Z,73.78
2024-05-09T00:20:36.462Z,74.15
2024-05-09T00:23:10.911Z,73.88
2024-05-09T00:25:38.748Z,74.23
2024-05-09T00:28:06.160Z,74.08
2024-05-09T00:30:35.783Z,73.82
2024-05-09T00:33:08.993Z,73.45
2024-05-09T00:35:36.976Z,73.40
2024-05-09T00:38:04.211Z,73.95
2024-05-09T00:40:41.859Z,72.90
2024-05-09T00:43:11.387Z,72.05
2024-05-09T00:45:38.546Z,71.28
2024-05-09T00:48:08.649Z,70.97
2024-05-09T00:50:38.914Z,71.33
2024-05-09T00:53:06.834Z,70.98
2024-05-09T00:55:35.964Z,70.99
2024-05-09T00:58:04.601Z,70.74
2024-05-09T01:00:38.234Z,70.15
2024-05-09T01:03:07.526Z,70.72
2024-05-09T01:05:35.058Z,68.93
2024-05-09T01:08:02.984Z,69.03
2024-05-09T01:10:34.468Z,69.00
2024-05-09T01:13:03.541Z,69.13
2024-05-09T01:15:30.285Z,69.50
2024-05-09T01:17:57.861Z,69.49
2024-05-09T01:20:36.460Z,69.01
2024-05-09T01:23:09.026Z,68.14
2024-05-09T01:25:36.021Z,68.35
2024-05-09T01:28:02.676Z,68.57
2024-05-09T01:30:34.692Z,68.30
2024-05-09T01:33:04.486Z,68.60
2024-05-09T01:35:31.664Z,68.52
2024-05-09T01:37:58.343Z,68.83
2024-05-09T01:40:33.759Z,68.39
2024-05-09T01:43:04.892Z,68.89
2024-05-09T01:45:31.828Z,68.56
2024-05-09T01:47:58.784Z,68.87
2024-05-09T01:50:37.008Z,69.48
2024-05-09T01:53:07.696Z,69.96
2024-05-09T01:55:34.473Z,70.11
2024-05-09T01:58:01.139Z,71.13
2024-05-09T02:00:37.950Z,71.87
2024-05-09T02:03:15.527Z,72.27
2024-05-09T02:05:48.059Z,71.26
2024-05-09T02:08:17.325Z,71.63
2024-05-09T02:10:45.225Z,71.94
2024-05-09T02:13:13.047Z,72.16
2024-05-09T02:15:39.770Z,72.89
2024-05-09T02:18:08.149Z,72.69
2024-05-09T02:20:36.946Z,71.96
2024-05-09T02:23:06.304Z,72.12
2024-05-09T02:25:33.427Z,71.71
2024-05-09T02:28:00.300Z,71.78
2024-05-09T02:30:37.705Z,71.20
2024-05-09T02:33:08.389Z,71.54
2024-05-09T02:35:35.993Z,71.41
2024-05-09T02:38:03.263Z,70.71
2024-05-09T02:40:36.667Z,70.40
2024-05-09T02:43:10.429Z,69.40
2024-05-09T02:45:38.560Z,68.84
2024-05-09T02:48:06.628Z,68.73
2024-05-09T02:50:38.360Z,69.27
2024-05-09T02:53:08.126Z,69.72
2024-05-09T02:55:35.131Z,68.21
2024-05-09T02:58:01.842Z,67.46
2024-05-09T03:00:36.886Z,66.06
2024-05-09T03:03:08.617Z,64.47
2024-05-09T03:05:36.958Z,65.32
2024-05-09T03:08:04.178Z,62.56
2024-05-09T03:10:35.963Z,63.32
2024-05-09T03:13:07.888Z,64.08
2024-05-09T03:15:34.651Z,62.63
2024-05-09T03:18:01.601Z,62.56
2024-05-09T03:20:33.869Z,62.87
2024-05-09T03:23:02.567Z,63.14
2024-05-09T03:25:29.373Z,62.59
2024-05-09T03:27:56.026Z,62.03
2024-05-09T03:30:35.821Z,61.67
2024-05-09T03:33:15.360Z,60.31
2024-05-09T03:35:45.765Z,57.22
2024-05-09T03:38:12.619Z,56.85
2024-05-09T03:40:50.434Z,55.58
2024-05-09T03:43:18.169Z,55.85
2024-05-09T03:45:45.742Z,56.81
2024-05-09T03:48:13.166Z,57.20
2024-05-09T03:50:40.268Z,56.55
2024-05-09T03:53:11.080Z,54.62
2024-05-09T03:55:37.985Z,57.12
2024-05-09T03:58:05.039Z,53.54
2024-05-09T04:00:37.735Z,51.67
2024-05-09T04:03:09.001Z,52.13
2024-05-09T04:05:39.690Z,51.32
2024-05-09T04:08:07.078Z,53.33
2024-05-09T04:10:35.016Z,52.61
2024-05-09T04:13:03.507Z,52.66
2024-05-09T04:15:30.684Z,54.37
2024-05-09T04:17:57.636Z,50.22
2024-05-09T04:20:33.890Z,50.90
2024-05-09T04:23:07.004Z,50.15
2024-05-09T04:25:34.386Z,50.37
2024-05-09T04:28:01.144Z,51.55
2024-05-09T04:30:36.455Z,50.53
2024-05-09T04:33:08.120Z,51.02
2024-05-09T04:35:36.826Z,52.18
2024-05-09T04:38:05.339Z,53.24
2024-05-09T04:40:35.452Z,52.35
2024-05-09T04:43:04.473Z,49.84
2024-05-09T04:45:31.235Z,49.46
2024-05-09T04:47:58.446Z,49.55
2024-05-09T04:50:33.511Z,50.02
2024-05-09T04:53:04.942Z,49.81
2024-05-09T04:55:32.345Z,51.05
2024-05-09T04:57:58.930Z,52.02
2024-05-09T05:00:34.466Z,50.10
2024-05-09T05:03:07.389Z,49.27
2024-05-09T05:05:40.208Z,49.13
2024-05-09T05:08:14.575Z,46.67
2024-05-09T05:10:42.825Z,45.85
2024-05-09T05:13:18.376Z,46.97
2024-05-09T05:15:46.560Z,48.50
2024-05-09T05:18:14.881Z,47.85
2024-05-09T05:20:42.261Z,46.36
2024-05-09T05:23:12.399Z,46.04
2024-05-09T05:25:39.728Z,45.41
2024-05-09T05:28:06.644Z,46.57
2024-05-09T05:30:35.272Z,45.43
2024-05-09T05:33:02.358Z,46.98
2024-05-09T05:35:29.282Z,47.18
2024-05-09T05:37:56.120Z,45.13
2024-05-09T05:40:32.104Z,43.17
2024-05-09T05:43:03.794Z,45.11
2024-05-09T05:45:30.479Z,44.61
2024-05-09T05:47:57.267Z,45.13
2024-05-09T05:50:31.917Z,44.00
2024-05-09T05:53:03.554Z,43.92
2024-05-09T05:55:30.332Z,44.92
2024-05-09T05:57:58.043Z,44.58
2024-05-09T06:00:30.284Z,42.05
2024-05-09T06:03:05.073Z,42.66
2024-05-09T06:05:32.515Z,43.70
2024-05-09T06:07:59.592Z,41.16
2024-05-09T06:10:34.808Z,41.21
2024-05-09T06:13:05.513Z,41.23
2024-05-09T06:15:32.156Z,40.78
2024-05-09T06:17:59.256Z,41.06
2024-05-09T06:20:34.648Z,40.43
2024-05-09T06:23:04.413Z,39.02
2024-05-09T06:25:31.411Z,39.35
2024-05-09T06:27:59.101Z,37.96
2024-05-09T06:30:34.463Z,39.09
2024-05-09T06:33:06.226Z,36.58
2024-05-09T06:35:34.037Z,36.71
2024-05-09T06:38:01.020Z,38.04
2024-05-09T06:40:37.198Z,34.52
2024-05-09T06:43:18.639Z,35.29
2024-05-09T06:45:48.244Z,37.04
2024-05-09T06:48:17.641Z,37.31
2024-05-09T06:50:44.504Z,37.49
2024-05-09T06:53:14.314Z,36.33
2024-05-09T06:55:41.006Z,38.15
2024-05-09T06:58:09.209Z,36.96
2024-05-09T07:00:39.663Z,34.10
2024-05-09T07:03:09.383Z,33.62
2024-05-09T07:05:36.492Z,35.24
2024-05-09T07:08:04.455Z,35.16
2024-05-09T07:10:35.054Z,36.22
2024-05-09T07:13:02.687Z,34.80
2024-05-09T07:15:29.251Z,33.93
2024-05-09T07:17:57.424Z,34.69
2024-05-09T07:20:34.657Z,34.70
2024-05-09T07:23:05.236Z,34.55
2024-05-09T07:25:37.592Z,34.37
2024-05-09T07:28:04.604Z,35.01
2024-05-09T07:30:34.322Z,35.71
2024-05-09T07:33:02.929Z,35.46
2024-05-09T07:35:30.774Z,34.23
2024-05-09T07:37:57.935Z,35.94
2024-05-09T07:40:32.862Z,35.76
2024-05-09T07:43:07.206Z,36.00
2024-05-09T07:52:23.794Z,37.36
2024-05-09T07:53:38.943Z,36.18
2024-05-09T07:56:09.398Z,37.93
2024-05-09T07:58:36.896Z,36.75
2024-05-09T08:01:03.801Z,37.46
2024-05-09T08:03:31.001Z,39.66
2024-05-09T08:05:57.708Z,38.69
2024-05-09T08:08:24.358Z,38.21
2024-05-09T08:10:51.668Z,37.64
2024-05-09T08:13:18.456Z,39.41
2024-05-09T08:15:45.338Z,36.90
2024-05-09T08:18:14.336Z,38.61
2024-05-09T08:20:42.290Z,37.23
2024-05-09T08:23:08.895Z,39.41
2024-05-09T08:25:35.557Z,38.75
2024-05-09T08:28:04.639Z,36.45
2024-05-09T08:30:36.634Z,36.22
2024-05-09T08:33:05.968Z,37.16
2024-05-09T08:35:33.567Z,36.89
2024-05-09T08:38:06.052Z,36.21
2024-05-09T08:40:36.225Z,35.67
2024-05-09T08:43:09.297Z,36.57
2024-05-09T08:45:39.037Z,36.60
2024-05-09T08:48:08.374Z,36.68
2024-05-09T08:50:40.151Z,37.16
2024-05-09T09:00:43.983Z,39.29
2024-05-09T09:03:15.467Z,39.90
2024-05-09T09:05:48.903Z,41.32
2024-05-09T09:08:16.167Z,40.40
2024-05-09T09:10:43.462Z,41.05
2024-05-09T09:13:11.315Z,40.90
2024-05-09T09:16:00.065Z,41.54
2024-05-09T09:18:28.016Z,42.05
2024-05-09T09:20:55.236Z,39.67
2024-05-09T09:23:22.246Z,41.55
2024-05-09T09:25:49.051Z,39.76
2024-05-09T09:28:16.283Z,41.47
2024-05-09T09:30:43.518Z,40.87
2024-05-09T09:33:11.417Z,41.87
2024-05-09T09:35:40.778Z,41.16
2024-05-09T09:38:11.127Z,37.58
2024-05-09T09:40:44.972Z,39.12
2024-05-09T09:43:19.658Z,39.38
2024-05-09T09:45:47.012Z,36.87
2024-05-09T09:48:15.331Z,36.40
2024-05-09T09:50:42.530Z,36.45
2024-05-09T09:53:10.332Z,37.40
2024-05-09T09:55:37.877Z,37.63
2024-05-09T09:58:05.875Z,36.88
2024-05-09T10:00:34.349Z,36.87
2024-05-09T10:03:01.957Z,33.60
2024-05-09T10:05:30.299Z,35.07
2024-05-09T10:08:00.317Z,34.31
2024-05-09T10:10:31.808Z,34.26
2024-05-09T10:13:07.386Z,34.65
2024-05-09T10:15:47.123Z,35.68
2024-05-09T10:18:14.909Z,34.91
2024-05-09T10:20:46.223Z,32.98
2024-05-09T10:23:29.943Z,34.00
2024-05-09T10:26:07.367Z,32.38
2024-05-09T10:28:44.091Z,32.10
2024-05-09T10:31:13.313Z,32.73
2024-05-09T10:33:52.402Z,33.14
2024-05-09T10:36:21.953Z,31.68
2024-05-09T10:38:49.661Z,31.55
2024-05-09T10:41:17.210Z,32.27
2024-05-09T10:43:44.541Z,32.37
2024-05-09T10:46:12.102Z,32.48
2024-05-09T10:48:44.177Z,33.53
2024-05-09T10:51:11.632Z,33.67
2024-05-09T10:53:42.466Z,35.40
2024-05-09T10:56:09.795Z,32.73
2024-05-09T10:58:36.906Z,33.13
2024-05-09T11:01:06.770Z,32.90
2024-05-09T11:03:34.890Z,32.02
2024-05-09T11:06:01.995Z,32.79
2024-05-09T11:08:30.302Z,31.78
2024-05-09T11:10:57.192Z,31.14
2024-05-09T11:13:37.494Z,30.81
2024-05-09T11:16:06.288Z,31.35
2024-05-09T11:18:37.811Z,31.32
2024-05-09T11:21:14.193Z,32.61
2024-05-09T11:23:41.454Z,31.74
2024-05-09T11:26:09.194Z,31.93
2024-05-09T11:28:35.956Z,31.82
2024-05-09T11:31:10.608Z,29.91
2024-05-09T11:33:39.420Z,30.68
2024-05-09T11:36:07.223Z,31.69
2024-05-09T11:38:33.975Z,31.08
2024-05-09T11:41:00.621Z,29.01
2024-05-09T11:43:27.274Z,29.93
2024-05-09T11:45:54.722Z,30.65
2024-05-09T11:48:21.583Z,29.82
2024-05-09T11:50:48.265Z,28.15
2024-05-09T11:53:15.030Z,28.25
2024-05-09T11:55:41.664Z,27.23
2024-05-09T11:58:08.538Z,28.01
2024-05-09T12:00:37.535Z,28.38
2024-05-09T12:03:05.863Z,28.29
2024-05-09T12:05:33.962Z,28.99
2024-05-09T12:08:01.295Z,30.12
2024-05-09T12:10:33.301Z,28.78
2024-05-09T12:13:03.138Z,27.57
2024-05-09T12:15:30.945Z,28.18
2024-05-09T12:18:00.061Z,27.98
2024-05-09T12:20:35.633Z,28.08
2024-05-09T12:23:05.563Z,28.78
2024-05-09T12:25:32.264Z,28.34
2024-05-09T12:27:59.053Z,28.76
2024-05-09T12:30:35.314Z,28.76
2024-05-09T12:33:06.166Z,26.67
2024-05-09T12:35:33.189Z,27.15
2024-05-09T12:38:00.070Z,25.79
2024-05-09T12:40:34.812Z,26.88
2024-05-09T12:43:05.078Z,26.87
2024-05-09T12:45:31.984Z,26.74
2024-05-09T12:47:58.917Z,26.96
2024-05-09T12:50:31.993Z,27.81
2024-05-09T12:53:01.316Z,27.15
2024-05-09T12:55:29.758Z,28.42
2024-05-09T12:57:58.814Z,26.82
2024-05-09T13:00:31.684Z,27.03
2024-05-09T13:03:01.067Z,26.92
2024-05-09T13:05:28.443Z,26.88
2024-05-09T13:07:56.864Z,26.00
2024-05-09T13:10:31.131Z,26.42
2024-05-09T13:13:00.552Z,28.08
2024-05-09T13:15:27.742Z,26.50
2024-05-09T13:17:56.411Z,26.74
2024-05-09T13:20:31.630Z,25.85
2024-05-09T13:23:02.392Z,26.46
2024-05-09T13:25:29.269Z,28.17
2024-05-09T13:27:56.963Z,28.55
2024-05-09T13:30:29.872Z,28.79
2024-05-09T13:33:06.375Z,28.15
2024-05-09T13:35:35.421Z,28.39
2024-05-09T13:38:02.903Z,27.87
2024-05-09T13:40:33.914Z,26.13
2024-05-09T13:43:03.229Z,25.50
2024-05-09T13:45:30.227Z,25.89
2024-05-09T13:47:57.242Z,25.65
2024-05-09T13:50:32.958Z,25.69
2024-05-09T13:53:02.556Z,26.45
2024-05-09T13:55:29.156Z,25.91
2024-05-09T13:57:56.214Z,26.73
2024-05-09T14:00:37.343Z,26.86
2024-05-09T14:03:10.086Z,24.23
2024-05-09T14:05:37.057Z,24.32
2024-05-09T14:08:04.163Z,25.26
2024-05-09T14:10:32.163Z,25.59
2024-05-09T14:13:00.266Z,24.00
2024-05-09T14:15:27.052Z,25.14
2024-05-09T14:17:54.685Z,24.68
2024-05-09T14:22:50.876Z,24.80
2024-05-09T14:25:17.619Z,24.01
2024-05-09T14:27:44.344Z,25.01
2024-05-09T14:30:18.246Z,25.42
2024-05-09T14:32:52.736Z,24.92
2024-05-09T14:35:19.554Z,23.50
2024-05-09T14:37:46.176Z,23.49
2024-05-09T14:40:30.318Z,24.48
2024-05-09T14:43:03.188Z,23.87
2024-05-09T14:45:30.222Z,23.49
2024-05-09T14:47:57.236Z,24.89
2024-05-09T14:50:32.535Z,23.25
2024-05-09T14:53:03.590Z,22.95
2024-05-09T14:55:33.172Z,24.65
2024-05-09T14:58:04.950Z,23.87
2024-05-09T15:00:43.216Z,22.76
2024-05-09T15:03:15.753Z,23.75
2024-05-09T15:05:42.707Z,23.07
2024-05-09T15:08:09.400Z,22.56
2024-05-09T15:10:37.238Z,22.55
2024-05-09T15:13:06.551Z,23.20
2024-05-09T15:15:34.914Z,23.82
2024-05-09T15:18:01.803Z,24.49
2024-05-09T15:20:34.575Z,23.68
2024-05-09T15:23:03.926Z,23.58
2024-05-09T15:25:30.833Z,23.16
2024-05-09T15:27:57.877Z,24.50
2024-05-09T15:30:30.680Z,25.09
2024-05-09T15:33:00.100Z,26.31
2024-05-09T15:35:26.993Z,24.17
2024-05-09T15:37:53.718Z,24.53
2024-05-09T15:40:30.520Z,24.85
2024-05-09T15:43:04.578Z,24.59
2024-05-09T15:45:31.559Z,24.42
2024-05-09T15:47:58.713Z,25.01
2024-05-09T15:50:35.431Z,24.71
2024-05-09T15:53:06.679Z,24.47
2024-05-09T15:55:34.479Z,25.19
2024-05-09T15:58:02.269Z,25.53
2024-05-09T16:00:37.321Z,25.74
2024-05-09T16:03:07.773Z,26.01
2024-05-09T16:05:34.733Z,25.63
2024-05-09T16:08:01.899Z,25.47
2024-05-09T16:10:32.759Z,25.34
2024-05-09T16:13:01.557Z,25.69
2024-05-09T16:15:28.599Z,25.45
2024-05-09T16:17:55.516Z,25.74
2024-05-09T16:20:33.873Z,25.17
2024-05-09T16:23:06.075Z,25.33
2024-05-09T16:25:32.739Z,25.73
2024-05-09T16:30:33.495Z,26.33
2024-05-09T16:33:02.826Z,25.36
2024-05-09T16:35:29.762Z,25.07
2024-05-09T16:37:57.132Z,25.18
2024-05-09T16:40:33.055Z,25.39
2024-05-09T16:43:04.974Z,25.86
2024-05-09T16:45:31.953Z,25.19
2024-05-09T16:47:59.719Z,25.04
2024-05-09T16:50:32.025Z,25.57
2024-05-09T16:53:00.617Z,26.38
2024-05-09T16:55:27.423Z,26.88
2024-05-09T16:57:55.347Z,26.80
2024-05-09T17:00:31.367Z,26.39
2024-05-09T17:03:06.588Z,27.42
2024-05-09T17:05:34.128Z,26.51
2024-05-09T17:08:01.408Z,25.66
2024-05-09T17:10:32.876Z,26.07
2024-05-09T17:13:02.190Z,26.25
2024-05-09T17:15:29.144Z,26.71
2024-05-09T17:17:56.229Z,27.17
2024-05-09T17:20:29.832Z,27.22
2024-05-09T17:23:02.238Z,27.69
2024-05-09T17:25:29.302Z,27.46
2024-05-09T17:27:56.600Z,27.79
2024-05-09T17:30:31.561Z,28.84
2024-05-09T17:33:02.656Z,28.72
2024-05-09T17:35:29.374Z,28.73
2024-05-09T17:37:56.686Z,30.01
2024-05-09T17:42:53.155Z,31.66
2024-05-09T17:45:20.636Z,31.87
2024-05-09T17:47:47.723Z,32.04
2024-05-09T17:50:21.014Z,31.77
2024-05-09T17:52:53.812Z,33.52
2024-05-09T17:55:21.304Z,34.35
2024-05-09T17:57:48.220Z,35.17
2024-05-09T18:00:24.068Z,35.76
2024-05-09T18:02:56.352Z,36.90
2024-05-09T18:05:23.424Z,36.63
2024-05-09T18:07:50.208Z,38.10
2024-05-09T18:10:25.177Z,38.27
2024-05-09T18:12:56.609Z,39.48
2024-05-09T18:15:23.384Z,40.26
2024-05-09T18:17:51.593Z,40.74
2024-05-09T18:20:28.590Z,40.83
2024-05-09T18:23:04.474Z,41.71
2024-05-09T18:25:31.147Z,42.94
2024-05-09T18:27:58.128Z,42.50
2024-05-09T18:30:32.066Z,42.98
2024-05-09T18:33:01.605Z,44.19
2024-05-09T18:35:28.333Z,45.58
2024-05-09T18:37:55.079Z,45.37
2024-05-09T18:40:31.140Z,44.88
2024-05-09T18:43:01.992Z,45.01
2024-05-09T18:45:29.087Z,44.98
2024-05-09T18:47:56.144Z,45.15
2024-05-09T18:50:31.933Z,45.43
2024-05-09T18:53:03.594Z,45.59
2024-05-09T18:55:30.288Z,45.54
2024-05-09T18:57:57.224Z,46.09
2024-05-09T19:00:33.236Z,46.05
2024-05-09T19:03:05.937Z,47.16
2024-05-09T19:05:34.860Z,47.09
2024-05-09T19:08:02.160Z,47.86
2024-05-09T19:10:33.985Z,48.24
2024-05-09T19:13:05.406Z,48.28
2024-05-09T19:15:35.760Z,47.62
2024-05-09T19:18:02.797Z,48.55
2024-05-09T19:20:34.256Z,47.91
2024-05-09T19:23:05.050Z,48.19
2024-05-09T19:25:32.871Z,48.47
2024-05-09T19:28:00.470Z,48.31
2024-05-09T19:30:36.641Z,48.33
2024-05-09T19:33:07.667Z,48.08
2024-05-09T19:35:34.554Z,48.42
2024-05-09T19:38:01.762Z,49.44
2024-05-09T19:40:31.972Z,48.96
2024-05-09T19:43:01.684Z,49.31
2024-05-09T19:45:29.057Z,50.60
2024-05-09T19:47:56.527Z,51.70
2024-05-09T19:50:32.119Z,51.51
2024-05-09T19:53:06.706Z,51.36
2024-05-09T19:55:33.773Z,51.95
2024-05-09T19:58:04.845Z,50.99
2024-05-09T20:00:39.561Z,52.57
2024-05-09T20:03:09.170Z,51.85
2024-05-09T20:05:36.760Z,52.37
2024-05-09T20:08:04.323Z,51.59
2024-05-09T20:10:33.320Z,51.87
2024-05-09T20:13:02.624Z,51.03
2024-05-09T20:15:29.747Z,52.32
2024-05-09T20:17:56.981Z,52.39
2024-05-09T20:20:32.712Z,53.05
2024-05-09T20:23:04.865Z,52.62
2024-05-09T20:25:31.461Z,52.84
2024-05-09T20:27:58.106Z,53.72
2024-05-09T20:30:31.376Z,54.20
2024-05-09T20:33:00.506Z,54.72
2024-05-09T20:35:30.523Z,54.79
2024-05-09T20:37:57.281Z,55.93
2024-05-09T20:40:29.208Z,55.49
2024-05-09T20:43:00.287Z,55.17
2024-05-09T20:45:27.172Z,55.85
2024-05-09T20:47:54.167Z,56.88
2024-05-09T20:50:28.860Z,57.14
2024-05-09T20:53:03.214Z,56.96
2024-05-09T20:55:30.295Z,56.54
2024-05-09T20:57:57.455Z,57.31
2024-05-09T21:00:33.732Z,56.59
2024-05-09T21:03:06.509Z,57.45
2024-05-09T21:05:33.951Z,57.82
2024-05-09T21:08:00.830Z,57.58
2024-05-09T21:10:32.092Z,57.99
2024-05-09T21:13:00.310Z,57.51
2024-05-09T21:15:26.945Z,57.40
2024-05-09T21:17:53.565Z,57.47
2024-05-09T21:20:24.420Z,57.82
2024-05-09T21:22:57.726Z,57.98
2024-05-09T21:25:24.485Z,57.72
2024-05-09T21:27:51.564Z,58.19
2024-05-09T21:30:27.371Z,58.62
2024-05-09T21:32:59.683Z,58.83
2024-05-09T21:35:26.399Z,58.99
2024-05-09T21:37:53.169Z,59.06
2024-05-09T21:40:30.587Z,59.12
2024-05-09T21:43:00.929Z,59.41
2024-05-09T21:45:27.785Z,59.65
2024-05-09T21:47:54.719Z,59.95
2024-05-09T21:50:28.051Z,60.62
2024-05-09T21:52:59.065Z,60.81
2024-05-09T21:55:25.773Z,61.22
2024-05-09T21:57:52.524Z,60.90
2024-05-09T22:00:28.793Z,61.06
2024-05-09T22:03:02.364Z,61.37
2024-05-09T22:05:29.630Z,61.14
2024-05-09T22:07:57.030Z,60.68
2024-05-09T22:10:30.498Z,61.00
2024-05-09T22:13:00.732Z,61.47
2024-05-09T22:15:27.461Z,61.50
2024-05-09T22:17:55.722Z,61.52
2024-05-09T22:20:29.269Z,62.15
2024-05-09T22:23:04.243Z,62.21
2024-05-09T22:25:32.132Z,62.72
2024-05-09T22:28:00.033Z,62.77
2024-05-09T22:30:34.669Z,62.13
2024-05-09T22:33:05.843Z,62.63
2024-05-09T22:35:32.849Z,62.97
2024-05-09T22:37:59.685Z,62.83
2024-05-09T22:40:38.141Z,62.81
2024-05-09T22:43:13.293Z,62.71
2024-05-09T22:45:40.247Z,62.88
2024-05-09T22:48:08.467Z,62.79
2024-05-09T22:50:35.386Z,62.82
2024-05-09T22:53:02.113Z,63.01
2024-05-09T22:55:29.017Z,62.93
2024-05-09T22:57:55.972Z,63.72
2024-05-09T23:00:30.919Z,63.69
2024-05-09T23:03:00.059Z,63.51
2024-05-09T23:05:27.071Z,63.49
2024-05-09T23:07:53.845Z,63.52
2024-05-09T23:10:27.767Z,64.06
2024-05-09T23:12:59.295Z,64.29
2024-05-09T23:15:26.000Z,64.46
2024-05-09T23:17:52.815Z,64.23
2024-05-09T23:20:29.837Z,64.43
2024-05-09T23:23:03.535Z,65.21
2024-05-09T23:25:30.298Z,65.54
2024-05-09T23:27:57.146Z,65.81
2024-05-09T23:30:33.370Z,65.73
2024-05-09T23:33:05.232Z,66.25
2024-05-09T23:35:32.233Z,66.19
2024-05-09T23:37:58.836Z,66.57
2024-05-09T23:40:36.875Z,66.67
2024-05-09T23:43:07.084Z,66.81
2024-05-09T23:45:34.073Z,67.12
2024-05-09T23:48:01.182Z,67.22
2024-05-09T23:50:34.394Z,67.48
2024-05-09T23:53:04.495Z,67.35
2024-05-09T23:55:32.118Z,67.99
2024-05-09T23:57:59.292Z,67.80
